Terminal Aerodrome Forecast
Issued by NWS Upton, NY

Home | Current Version | Previous Version | Text Only | Print | Product List | Glossary On
Versions: 1 2 3 4 5 6 7 8 9 10 11 12 13 14 15 16 17 18 19 20 21 22 23 24 25 26 27
000
FTUS41 KOKX 040832 AAB
TAFBDR
TAF AMD
KBDR 040832Z 0409/0506 04007KT P6SM BKN250
     FM041200 05012KT P6SM BKN030
     FM041600 07013KT P6SM BKN040
     FM042000 08014G20KT P6SM BKN150
     FM050000 06013KT P6SM BKN250
     FM050400 07009KT P6SM SCT250=

USA.gov is the U.S. government's official web portal to all federal, state and local government web resources and services.